Time;durP1;ratioP1;P1;durP2;ratioP2;P2;SDS_P1;SDS_P2;PMS_P1;PMS_P2;Temp;Humidity;BMP_temperature;BMP_pressure;BME280_temperature;BME280_humidity;BME280_pressure;Samples;Min_cycle;Max_cycle;Signal;HPM_P1;HPM_P2
2022/06/29 00:00:54;;;;;;;5.05;1.85;;;;;;;19.79;56.57;101630.06;5014693;28;20049;-58
2022/06/29 00:03:19;;;;;;;6.75;2.20;;;;;;;19.75;57.90;101632.66;5014211;28;20076;-59
2022/06/29 00:05:44;;;;;;;3.33;2.03;;;;;;;19.75;56.55;101635.25;5013288;28;20042;-57
2022/06/29 00:08:10;;;;;;;3.35;2.17;;;;;;;19.76;56.67;101640.47;5016359;28;20442;-59
2022/06/29 00:10:37;;;;;;;5.75;2.38;;;;;;;19.71;57.65;101641.31;5015786;28;20029;-58
2022/06/29 00:13:02;;;;;;;6.65;2.38;;;;;;;19.73;57.15;101631.78;5017401;28;20036;-59
2022/06/29 00:15:27;;;;;;;7.25;2.33;;;;;;;19.67;57.86;101630.03;5017166;28;20029;-56
2022/06/29 00:17:53;;;;;;;5.28;2.22;;;;;;;19.65;57.63;101636.97;5013258;28;20033;-57
2022/06/29 00:20:18;;;;;;;5.50;2.60;;;;;;;19.63;58.14;101633.47;5014383;28;20163;-58
2022/06/29 00:22:45;;;;;;;5.20;2.42;;;;;;;19.56;57.59;101631.69;5009522;28;20037;-59
2022/06/29 00:25:11;;;;;;;7.18;3.00;;;;;;;19.55;57.87;101624.75;5012612;28;20429;-59
2022/06/29 00:27:37;;;;;;;7.00;2.60;;;;;;;19.51;57.99;101623.84;5012829;28;20047;-54
2022/06/29 00:30:04;;;;;;;5.22;2.90;;;;;;;19.50;57.95;101621.25;5012787;28;20033;-57
2022/06/29 00:32:30;;;;;;;6.32;2.58;;;;;;;19.47;57.75;101619.47;5012294;28;20068;-58
2022/06/29 00:34:57;;;;;;;6.22;2.85;;;;;;;19.40;58.05;101616.84;5015467;28;20469;-59
2022/06/29 00:37:22;;;;;;;4.72;2.60;;;;;;;19.41;58.25;101618.59;5015991;28;20033;-58
2022/06/29 00:39:47;;;;;;;7.63;2.80;;;;;;;19.36;58.60;101613.38;5010369;28;20038;-58
2022/06/29 00:42:13;;;;;;;5.18;2.65;;;;;;;19.37;58.39;101620.31;5011559;28;20061;-59
2022/06/29 00:44:38;;;;;;;6.07;2.47;;;;;;;19.33;59.38;101605.53;5012999;28;20033;-58
2022/06/29 00:47:06;;;;;;;6.28;2.70;;;;;;;19.29;59.22;101612.47;5013577;28;20045;-59
2022/06/29 00:49:33;;;;;;;5.55;2.92;;;;;;;19.27;59.31;101611.59;5013412;28;20461;-59
2022/06/29 00:52:15;;;;;;;6.13;2.90;;;;;;;19.29;59.15;101603.75;5010907;28;20068;-58
2022/06/29 00:54:45;;;;;;;5.00;2.70;;;;;;;19.17;59.75;101604.59;5010611;28;20065;-55
2022/06/29 00:57:15;;;;;;;5.50;2.63;;;;;;;19.18;59.28;101601.13;5015050;28;20498;-59
2022/06/29 00:59:47;;;;;;;5.63;2.92;;;;;;;19.17;59.44;101602.00;5013469;28;20025;-58
2022/06/29 01:02:14;;;;;;;4.28;2.67;;;;;;;19.10;59.23;101602.81;5011949;28;20513;-56
2022/06/29 01:04:40;;;;;;;4.50;3.00;;;;;;;19.10;59.70;101597.59;5011840;28;20068;-58
2022/06/29 01:07:06;;;;;;;5.93;2.95;;;;;;;19.10;59.63;101592.38;5014264;28;20425;-56
2022/06/29 01:09:32;;;;;;;6.22;2.95;;;;;;;19.10;59.71;101589.78;5012498;28;20064;-56
2022/06/29 01:11:58;;;;;;;6.43;3.10;;;;;;;19.01;59.75;101582.81;5019882;28;20037;-59
2022/06/29 01:14:24;;;;;;;6.53;3.17;;;;;;;18.98;60.18;101590.59;5016776;28;20493;-58
2022/06/29 01:16:49;;;;;;;6.90;3.47;;;;;;;19.00;60.34;101593.22;5018279;28;20033;-58
2022/06/29 01:19:15;;;;;;;6.05;3.28;;;;;;;18.99;59.88;101591.50;5019520;28;20030;-58
2022/06/29 01:21:45;;;;;;;7.43;2.97;;;;;;;18.99;60.34;101592.34;5012824;28;20103;-58
2022/06/29 01:24:10;;;;;;;4.72;2.83;;;;;;;18.87;60.74;101594.91;5016945;28;21253;-58
2022/06/29 01:26:36;;;;;;;5.18;3.28;;;;;;;18.93;60.00;101592.31;5019528;28;20553;-58
2022/06/29 01:29:02;;;;;;;6.97;3.30;;;;;;;18.89;60.32;101590.56;5017521;28;21279;-58
2022/06/29 01:31:27;;;;;;;7.30;3.60;;;;;;;18.83;60.38;101592.25;5017419;28;20037;-58
2022/06/29 01:33:53;;;;;;;5.53;3.30;;;;;;;18.85;60.84;101591.41;5018580;28;20041;-59
2022/06/29 01:36:18;;;;;;;5.43;3.20;;;;;;;18.84;61.23;101586.19;5018173;28;20490;-58
2022/06/29 01:38:44;;;;;;;6.40;3.40;;;;;;;18.75;61.08;101580.06;5022422;28;20403;-58
2022/06/29 01:41:11;;;;;;;6.18;3.45;;;;;;;18.71;61.31;101575.69;5023825;28;20040;-59
2022/06/29 01:43:40;;;;;;;7.53;3.15;;;;;;;18.73;61.06;101578.28;5023795;28;20033;-58
2022/06/29 01:46:06;;;;;;;6.97;3.10;;;;;;;18.71;61.33;101573.09;5025630;28;20029;-58
2022/06/29 01:48:32;;;;;;;5.82;2.95;;;;;;;18.66;61.23;101579.97;5025313;28;20033;-58
2022/06/29 01:50:57;;;;;;;6.82;3.40;;;;;;;18.67;61.22;101579.13;5021399;28;20083;-59
2022/06/29 01:53:23;;;;;;;6.32;3.25;;;;;;;18.71;61.03;101573.09;5021123;28;20399;-58
2022/06/29 01:55:48;;;;;;;4.43;3.22;;;;;;;18.66;61.23;101568.69;5023898;28;20021;-58
2022/06/29 01:58:14;;;;;;;6.35;3.47;;;;;;;18.61;61.28;101571.25;5020412;28;20021;-58
2022/06/29 02:00:40;;;;;;;6.10;3.65;;;;;;;18.54;61.40;101566.84;5020721;28;20041;-59
2022/06/29 02:03:06;;;;;;;5.35;3.30;;;;;;;18.56;61.84;101570.34;5017107;28;20026;-58
2022/06/29 02:05:31;;;;;;;5.47;3.30;;;;;;;18.53;61.67;101565.13;5023542;28;20375;-58
2022/06/29 02:07:57;;;;;;;4.43;3.42;;;;;;;18.53;61.78;101569.47;5014784;28;20517;-56
2022/06/29 02:10:23;;;;;;;6.85;3.63;;;;;;;18.47;61.30;101555.53;5022757;28;20060;-57
2022/06/29 02:12:48;;;;;;;7.00;3.67;;;;;;;18.48;61.85;101559.88;5018763;28;20434;-58
2022/06/29 02:15:14;;;;;;;5.38;3.45;;;;;;;18.42;61.76;101567.66;5025481;28;20091;-58
2022/06/29 02:17:39;;;;;;;7.13;3.70;;;;;;;18.38;62.14;101570.22;5018573;28;20069;-57
2022/06/29 02:20:06;;;;;;;4.85;3.50;;;;;;;18.40;61.94;101571.13;5021878;28;20026;-58
2022/06/29 02:22:31;;;;;;;6.78;3.90;;;;;;;18.39;61.66;101570.25;5017774;28;20501;-58
2022/06/29 02:24:57;;;;;;;6.07;3.55;;;;;;;18.35;62.03;101570.22;5017295;28;20029;-58
2022/06/29 02:27:22;;;;;;;6.88;3.58;;;;;;;18.33;62.35;101578.00;5025517;28;20030;-58
2022/06/29 02:29:47;;;;;;;15.23;3.60;;;;;;;18.34;62.56;101573.69;5020011;28;20735;-58
2022/06/29 02:34:57;;;;;;;4.55;3.55;;;;;;;18.27;62.98;101564.94;5019505;28;20052;-58
2022/06/29 02:37:22;;;;;;;7.97;3.90;;;;;;;18.23;63.00;101566.66;5018532;28;20120;-58
2022/06/29 02:39:48;;;;;;;6.07;4.00;;;;;;;18.18;63.67;101562.25;5022845;28;20046;-58
2022/06/29 02:42:14;;;;;;;7.75;3.80;;;;;;;18.20;63.36;101556.22;5021655;28;20032;-58
2022/06/29 02:44:39;;;;;;;10.30;3.88;;;;;;;18.18;63.46;101552.72;5018746;28;20041;-57
2022/06/29 02:47:06;;;;;;;6.63;3.70;;;;;;;18.13;63.76;101557.00;5019444;28;20797;-58
2022/06/29 02:49:32;;;;;;;5.68;3.50;;;;;;;18.13;64.02;101558.75;5017756;28;20097;-58
2022/06/29 02:51:57;;;;;;;4.25;3.38;;;;;;;18.08;63.99;101563.03;5020549;28;20372;-57
2022/06/29 02:54:23;;;;;;;5.75;3.63;;;;;;;18.04;63.91;101558.69;5020941;28;20125;-58
2022/06/29 02:56:48;;;;;;;6.30;3.83;;;;;;;18.03;63.74;101549.13;5021977;28;20041;-57
2022/06/29 02:59:14;;;;;;;6.00;3.53;;;;;;;18.02;63.99;101549.97;5017956;28;20026;-58
2022/06/29 03:01:39;;;;;;;7.20;4.00;;;;;;;18.01;64.03;101551.69;5021767;28;20087;-58
2022/06/29 03:04:04;;;;;;;7.65;4.40;;;;;;;18.04;63.94;101543.94;5020726;28;20040;-58
2022/06/29 03:06:30;;;;;;;6.10;3.90;;;;;;;17.98;64.08;101543.88;5022846;28;20117;-55
2022/06/29 03:08:55;;;;;;;7.13;4.10;;;;;;;18.00;64.20;101544.75;5021671;28;20122;-58
2022/06/29 03:11:21;;;;;;;5.43;3.70;;;;;;;17.97;63.99;101539.53;5021519;28;20043;-58
2022/06/29 03:13:46;;;;;;;10.18;5.18;;;;;;;17.91;64.32;101531.69;5022554;28;20460;-58
2022/06/29 03:16:11;;;;;;;5.60;3.60;;;;;;;17.92;64.09;101530.81;5023032;28;20036;-58
2022/06/29 03:18:37;;;;;;;6.45;3.90;;;;;;;17.95;63.95;101531.72;5022031;28;20029;-58
2022/06/29 03:21:03;;;;;;;5.82;3.70;;;;;;;17.92;64.20;101531.69;5018831;28;20547;-58
2022/06/29 03:23:28;;;;;;;6.07;3.80;;;;;;;17.89;63.87;101533.38;5022566;28;20529;-58
2022/06/29 03:25:53;;;;;;;6.70;3.95;;;;;;;17.91;64.84;101529.09;5021788;28;20033;-57
2022/06/29 03:28:19;;;;;;;6.35;3.90;;;;;;;17.88;64.95;101527.31;5019316;28;20116;-58
2022/06/29 03:30:44;;;;;;;6.20;3.90;;;;;;;17.90;64.17;101523.03;5018647;28;20033;-58
2022/06/29 03:33:09;;;;;;;5.15;3.95;;;;;;;17.85;64.24;101521.22;5018415;28;20041;-57
2022/06/29 03:35:35;;;;;;;5.55;3.67;;;;;;;17.85;64.81;101516.91;5007813;28;20128;-56
2022/06/29 03:38:00;;;;;;;4.78;3.85;;;;;;;17.82;64.73;101511.66;5004520;28;20033;-58
2022/06/29 03:40:26;;;;;;;6.57;4.13;;;;;;;17.82;64.75;101505.56;5005938;28;21401;-57
2022/06/29 03:42:51;;;;;;;5.45;4.10;;;;;;;17.83;64.57;101505.59;5017642;28;20037;-58
2022/06/29 03:45:17;;;;;;;10.65;4.28;;;;;;;17.76;64.43;101510.72;5020459;28;20029;-57
2022/06/29 03:47:42;;;;;;;4.78;4.00;;;;;;;17.78;64.49;101499.50;5017609;28;20017;-58
2022/06/29 03:50:08;;;;;;;6.68;4.18;;;;;;;17.78;64.58;101501.22;5017332;28;20029;-57
2022/06/29 03:52:34;;;;;;;7.60;4.32;;;;;;;17.78;64.36;101504.69;5017660;28;20034;-58
2022/06/29 03:55:00;;;;;;;7.82;4.13;;;;;;;17.75;64.76;101503.78;5020855;28;20043;-58
2022/06/29 03:57:25;;;;;;;6.82;3.92;;;;;;;17.77;65.16;101496.84;5022280;28;20117;-58
2022/06/29 03:59:51;;;;;;;6.25;4.13;;;;;;;17.74;65.14;101502.06;5015258;28;20391;-58
2022/06/29 04:02:16;;;;;;;6.60;4.38;;;;;;;17.75;64.78;101496.84;5024701;28;20026;-58
2022/06/29 04:04:41;;;;;;;5.55;4.20;;;;;;;17.70;65.20;101494.16;5019595;28;20037;-55
2022/06/29 04:07:07;;;;;;;6.18;4.00;;;;;;;17.66;65.51;101495.03;5019470;28;20045;-58
2022/06/29 04:09:32;;;;;;;7.18;3.75;;;;;;;17.67;65.33;101491.56;5017737;28;20049;-58
2022/06/29 04:11:58;;;;;;;5.55;4.10;;;;;;;17.64;66.32;101499.31;5000236;28;20033;-58
2022/06/29 04:14:25;;;;;;;8.27;4.15;;;;;;;17.68;65.94;101495.91;5019289;28;20038;-56
2022/06/29 04:16:52;;;;;;;5.82;4.25;;;;;;;17.66;66.06;101495.03;5019788;28;20041;-58
2022/06/29 04:19:18;;;;;;;5.88;4.28;;;;;;;17.60;66.25;101499.31;5016185;28;20025;-58
2022/06/29 04:21:43;;;;;;;4.38;3.75;;;;;;;17.62;66.19;101498.44;5023201;28;20603;-57
2022/06/29 04:24:09;;;;;;;6.78;4.15;;;;;;;17.67;65.69;101499.38;5016657;28;20149;-56
2022/06/29 04:26:35;;;;;;;6.22;3.70;;;;;;;17.70;65.61;101496.78;5020706;28;20038;-57
2022/06/29 04:29:01;;;;;;;5.68;4.03;;;;;;;17.65;65.87;101498.50;5018984;28;20022;-58
2022/06/29 04:31:26;;;;;;;8.07;4.28;;;;;;;17.71;65.60;101497.63;5019755;28;20093;-57
2022/06/29 04:33:51;;;;;;;8.48;4.65;;;;;;;17.68;65.64;101501.09;5014695;28;20024;-58
2022/06/29 04:36:17;;;;;;;8.02;4.18;;;;;;;17.67;65.95;101490.69;5020321;28;20033;-58
2022/06/29 04:38:42;;;;;;;10.77;4.60;;;;;;;17.72;66.33;101493.38;5019303;28;20059;-58
2022/06/29 04:41:08;;;;;;;11.23;4.70;;;;;;;17.72;65.89;101482.97;5021825;28;20079;-58
2022/06/29 04:43:33;;;;;;;11.68;4.55;;;;;;;17.74;66.62;101476.03;5017911;28;20033;-58
2022/06/29 04:48:43;;;;;;;6.88;4.55;;;;;;;17.76;65.90;101485.59;5018966;28;20145;-58
2022/06/29 04:51:09;;;;;;;10.25;4.90;;;;;;;17.78;66.62;101488.22;5018859;28;20597;-57
2022/06/29 04:53:34;;;;;;;9.27;4.53;;;;;;;17.85;65.86;101488.28;5019167;28;20037;-58
2022/06/29 04:56:00;;;;;;;8.68;4.90;;;;;;;17.87;66.01;101488.28;5012465;28;20088;-57
2022/06/29 04:58:25;;;;;;;13.73;5.28;;;;;;;17.92;65.96;101494.41;5017469;28;20104;-57
2022/06/29 05:00:51;;;;;;;11.25;5.00;;;;;;;17.92;66.08;101494.41;5019218;28;20037;-58
2022/06/29 05:03:16;;;;;;;5.95;4.75;;;;;;;17.99;65.47;101492.72;5014554;28;20036;-57
2022/06/29 05:05:42;;;;;;;9.68;4.68;;;;;;;18.03;66.11;101487.56;5018323;28;20444;-57
2022/06/29 05:08:07;;;;;;;7.70;4.63;;;;;;;18.10;66.28;101484.13;5014442;28;20039;-57
2022/06/29 05:10:33;;;;;;;6.25;4.43;;;;;;;18.13;66.96;101478.06;5019886;28;20081;-58
2022/06/29 05:12:58;;;;;;;7.20;4.72;;;;;;;18.17;65.50;101478.09;5020972;28;20033;-57
2022/06/29 05:15:24;;;;;;;7.05;5.13;;;;;;;18.21;65.40;101479.00;5016843;28;20033;-57
2022/06/29 05:17:49;;;;;;;7.85;5.15;;;;;;;18.18;65.48;101469.41;5019217;28;20044;-58
2022/06/29 05:20:15;;;;;;;7.30;5.32;;;;;;;18.23;65.37;101467.72;5018520;28;20084;-57
2022/06/29 05:22:41;;;;;;;8.30;4.93;;;;;;;18.29;65.33;101471.22;5020129;28;20048;-58
2022/06/29 05:25:07;;;;;;;10.82;5.38;;;;;;;18.31;65.42;101462.56;5018609;28;20044;-58
2022/06/29 05:27:33;;;;;;;11.10;5.13;;;;;;;18.36;65.30;101462.59;5018085;28;20663;-58
2022/06/29 05:29:58;;;;;;;8.40;5.07;;;;;;;18.40;65.12;101466.97;5018940;28;20021;-58
2022/06/29 05:32:24;;;;;;;8.45;5.65;;;;;;;18.49;64.86;101461.78;5019412;28;20148;-58
2022/06/29 05:34:49;;;;;;;7.00;5.57;;;;;;;18.53;64.63;101467.91;5022912;28;20493;-58
2022/06/29 05:37:15;;;;;;;7.80;5.57;;;;;;;18.56;64.79;101460.06;5018503;28;20026;-58
2022/06/29 05:39:42;;;;;;;8.55;5.25;;;;;;;18.67;64.90;101461.91;5021376;28;20545;-58
2022/06/29 05:42:07;;;;;;;9.88;5.22;;;;;;;18.72;65.03;101468.00;5019077;28;20056;-58
2022/06/29 05:44:33;;;;;;;7.03;5.32;;;;;;;18.77;65.31;101454.16;5024645;28;20495;-58
2022/06/29 05:46:58;;;;;;;7.72;5.15;;;;;;;18.85;65.51;101458.50;5018673;28;20040;-58
2022/06/29 05:49:24;;;;;;;7.47;5.30;;;;;;;18.91;65.07;101462.88;5020899;28;20715;-58
2022/06/29 05:51:49;;;;;;;7.60;5.38;;;;;;;18.94;64.78;101458.56;5018412;28;20037;-56
2022/06/29 05:54:15;;;;;;;11.85;5.63;;;;;;;19.00;64.79;101463.78;5016107;28;20096;-58
2022/06/29 05:56:40;;;;;;;6.50;5.75;;;;;;;19.05;65.89;101458.59;5017766;28;20497;-58
2022/06/29 05:59:06;;;;;;;8.18;5.88;;;;;;;19.14;65.43;101460.34;5015508;28;20041;-58
2022/06/29 06:01:32;;;;;;;9.40;6.20;;;;;;;19.21;65.02;101475.97;5016806;28;20026;-58
2022/06/29 06:03:57;;;;;;;9.02;6.18;;;;;;;19.28;64.18;101474.25;5018745;28;20246;-58
2022/06/29 06:06:22;;;;;;;11.63;6.28;;;;;;;19.36;65.12;101471.69;5015859;28;20090;-58
2022/06/29 06:08:48;;;;;;;9.93;6.45;;;;;;;19.41;64.14;101472.53;5019969;28;20052;-58
2022/06/29 06:11:13;;;;;;;7.43;6.55;;;;;;;19.59;63.78;101475.19;5017567;28;20041;-58
2022/06/29 06:13:38;;;;;;;10.18;6.30;;;;;;;19.61;64.01;101465.66;5019394;28;20034;-58
2022/06/29 06:16:04;;;;;;;11.70;7.35;;;;;;;19.64;64.19;101462.16;5017473;28;20045;-58
2022/06/29 06:18:29;;;;;;;10.65;7.43;;;;;;;19.72;63.68;101468.28;5018872;28;20034;-56
2022/06/29 06:20:55;;;;;;;9.85;7.72;;;;;;;19.77;62.46;101462.16;5017111;28;20410;-58
2022/06/29 06:23:20;;;;;;;11.18;7.20;;;;;;;19.82;63.19;101463.03;5024935;28;20041;-57
2022/06/29 06:25:46;;;;;;;8.68;7.82;;;;;;;19.95;63.22;101463.88;5017147;28;20057;-58
2022/06/29 06:28:12;;;;;;;9.18;7.68;;;;;;;19.97;62.79;101466.50;5019939;28;20026;-58
2022/06/29 06:30:37;;;;;;;9.00;7.00;;;;;;;20.01;62.71;101463.88;5019100;28;20085;-57
2022/06/29 06:33:03;;;;;;;9.13;7.60;;;;;;;20.07;62.88;101457.78;5018441;28;20128;-57
2022/06/29 06:35:28;;;;;;;9.10;7.70;;;;;;;20.16;63.70;101464.75;5022935;28;20115;-58
2022/06/29 06:37:53;;;;;;;8.93;7.10;;;;;;;20.29;63.86;101453.41;5023937;28;20045;-58
2022/06/29 06:43:03;;;;;;;10.00;7.80;;;;;;;20.49;62.81;101458.59;5024802;28;20091;-55
2022/06/29 06:45:29;;;;;;;11.40;6.90;;;;;;;20.72;62.27;101458.50;5018955;28;20390;-57
2022/06/29 06:47:54;;;;;;;9.63;7.22;;;;;;;20.84;62.49;101459.31;5023634;28;20440;-58
2022/06/29 06:50:20;;;;;;;10.55;7.70;;;;;;;20.76;62.22;101453.25;5023209;28;20029;-58
2022/06/29 06:52:45;;;;;;;10.23;7.95;;;;;;;20.95;63.38;101459.28;5022069;28;20370;-58
2022/06/29 06:55:13;;;;;;;13.05;7.28;;;;;;;21.07;62.62;101459.19;5023088;28;20033;-56
2022/06/29 06:57:38;;;;;;;10.00;7.95;;;;;;;21.13;63.03;101463.53;5021838;28;20060;-57
2022/06/29 07:00:05;;;;;;;8.10;7.40;;;;;;;21.33;61.33;101463.44;5018630;28;20065;-58
2022/06/29 07:02:30;;;;;;;10.57;7.55;;;;;;;21.37;61.03;101465.16;5021108;28;20057;-58
2022/06/29 07:04:56;;;;;;;13.15;7.68;;;;;;;21.58;60.84;101469.34;5024232;28;21464;-58
2022/06/29 07:07:22;;;;;;;11.07;7.60;;;;;;;21.69;60.55;101470.13;5016304;28;20041;-58
2022/06/29 07:09:47;;;;;;;13.50;7.90;;;;;;;21.80;60.72;101460.44;5018422;28;20447;-58
2022/06/29 07:12:13;;;;;;;11.68;8.50;;;;;;;21.78;60.03;101462.22;5019817;28;20033;-57
2022/06/29 07:14:38;;;;;;;9.50;8.02;;;;;;;21.91;61.08;101453.38;5022986;28;20040;-57
2022/06/29 07:17:04;;;;;;;9.95;7.72;;;;;;;21.99;61.29;101460.28;5024412;28;20055;-56
2022/06/29 07:19:29;;;;;;;9.65;7.00;;;;;;;22.13;59.25;101456.66;5019699;28;20029;-58
2022/06/29 07:21:55;;;;;;;9.05;6.53;;;;;;;22.14;58.76;101461.00;5022453;28;20068;-56
2022/06/29 07:24:20;;;;;;;10.05;7.30;;;;;;;22.06;59.04;101461.94;5018549;28;20049;-58
2022/06/29 07:26:46;;;;;;;9.98;6.90;;;;;;;22.01;59.16;101464.59;5019281;28;20029;-58
2022/06/29 07:29:11;;;;;;;10.00;6.95;;;;;;;22.03;59.40;101462.00;5019441;28;20029;-55
2022/06/29 07:31:37;;;;;;;10.20;6.82;;;;;;;21.96;61.44;101453.28;5022951;28;20103;-58
2022/06/29 07:34:03;;;;;;;9.93;8.18;;;;;;;21.95;60.24;101460.28;5021392;28;20033;-58
2022/06/29 07:36:29;;;;;;;9.77;7.53;;;;;;;21.90;60.75;101455.97;5022438;28;20371;-58
2022/06/29 07:38:54;;;;;;;11.70;7.95;;;;;;;22.04;61.29;101458.47;5022430;28;20041;-58
2022/06/29 07:41:19;;;;;;;10.10;6.95;;;;;;;22.13;61.36;101461.03;5018707;28;20510;-57
2022/06/29 07:43:45;;;;;;;7.43;5.88;;;;;;;22.32;59.79;101446.84;5020441;28;20037;-58
2022/06/29 07:46:11;;;;;;;11.35;6.07;;;;;;;22.46;59.83;101450.19;5021881;28;20033;-54
2022/06/29 07:48:36;;;;;;;8.57;5.85;;;;;;;22.50;59.49;101448.38;5018206;28;20025;-58
2022/06/29 07:51:01;;;;;;;6.70;4.78;;;;;;;22.65;59.06;101439.47;5017591;28;20026;-57
2022/06/29 07:53:27;;;;;;;7.65;5.07;;;;;;;22.71;56.26;101445.50;5020120;28;20072;-57
2022/06/29 07:55:53;;;;;;;6.50;4.78;;;;;;;22.83;56.53;101447.09;5017723;28;20025;-58
2022/06/29 07:58:18;;;;;;;6.40;4.10;;;;;;;22.97;55.07;101445.19;5018730;28;20156;-57
2022/06/29 08:00:44;;;;;;;6.07;3.85;;;;;;;23.00;56.61;101442.53;5023211;28;20524;-48
2022/06/29 08:03:10;;;;;;;8.18;3.83;;;;;;;23.13;56.29;101443.22;5020553;28;20517;-54
2022/06/29 08:05:36;;;;;;;4.30;3.28;;;;;;;23.07;53.70;101442.44;5017762;28;20065;-55
2022/06/29 08:08:03;;;;;;;7.68;2.80;;;;;;;23.18;53.39;101440.53;5016786;28;20458;-58
2022/06/29 08:10:29;;;;;;;6.88;2.70;;;;;;;23.14;53.92;101436.22;5019517;28;20057;-55
2022/06/29 08:12:54;;;;;;;4.85;2.55;;;;;;;23.25;52.49;101440.41;5021253;28;20064;-50
2022/06/29 08:15:20;;;;;;;8.18;2.45;;;;;;;23.33;53.50;101431.56;5019688;28;20059;-53
2022/06/29 08:17:48;;;;;;;5.25;2.42;;;;;;;23.39;53.54;101434.94;5009322;28;20034;-54
2022/06/29 08:20:14;;;;;;;6.70;2.42;;;;;;;23.52;53.87;101433.84;5015830;28;20505;-56
2022/06/29 08:22:39;;;;;;;5.82;2.50;;;;;;;23.65;53.85;101428.44;5017208;28;20060;-57
2022/06/29 08:25:05;;;;;;;3.42;2.30;;;;;;;23.75;52.42;101437.88;5013809;28;20048;-55
2022/06/29 08:27:31;;;;;;;3.90;2.38;;;;;;;23.83;51.32;101438.59;5011059;28;20099;-51
2022/06/29 08:29:57;;;;;;;5.88;2.45;;;;;;;23.88;51.10;101439.41;5017214;28;20029;-56
2022/06/29 08:32:23;;;;;;;3.95;2.28;;;;;;;23.97;52.46;101438.38;5020281;28;20044;-54
2022/06/29 08:34:48;;;;;;;5.45;2.35;;;;;;;24.09;51.72;101427.66;5017884;28;20034;-52
2022/06/29 08:37:14;;;;;;;6.80;2.33;;;;;;;24.15;51.33;101424.03;5022883;28;20041;-55
2022/06/29 08:39:39;;;;;;;6.30;3.03;;;;;;;24.18;50.89;101422.19;5024147;28;20044;-55
2022/06/29 08:42:06;;;;;;;4.50;2.58;;;;;;;24.33;50.62;101426.31;5020734;28;20038;-55
2022/06/29 08:44:39;;;;;;;5.38;2.35;;;;;;;24.32;49.66;101422.78;5020062;28;20417;-53
2022/06/29 08:47:06;;;;;;;3.90;2.08;;;;;;;24.48;52.31;101426.00;5024769;28;20477;-54
2022/06/29 08:49:32;;;;;;;7.35;2.30;;;;;;;24.52;49.75;101418.94;5022718;28;20116;-55
2022/06/29 08:51:58;;;;;;;4.30;1.83;;;;;;;24.63;51.34;101416.06;5019486;28;20434;-55
2022/06/29 08:54:26;;;;;;;4.13;1.85;;;;;;;24.74;50.17;101412.31;5014777;28;20104;-54
2022/06/29 08:56:54;;;;;;;6.43;2.00;;;;;;;24.84;50.90;101423.50;5015238;28;20048;-56
2022/06/29 08:59:22;;;;;;;4.70;1.63;;;;;;;24.78;47.24;101413.97;5017753;28;20108;-55
2022/06/29 09:01:51;;;;;;;3.63;1.50;;;;;;;24.83;48.43;101412.13;5019232;28;20037;-55
2022/06/29 09:04:18;;;;;;;3.20;1.75;;;;;;;24.80;49.07;101412.16;5018022;28;20485;-55
2022/06/29 09:06:45;;;;;;;6.03;1.45;;;;;;;24.86;47.80;101416.44;5018430;28;20675;-56
2022/06/29 09:09:12;;;;;;;6.63;1.70;;;;;;;24.88;47.79;101417.28;5019147;28;20608;-55
2022/06/29 09:11:41;;;;;;;6.93;1.42;;;;;;;24.83;49.38;101413.88;5019487;28;20485;-55
2022/06/29 09:14:12;;;;;;;5.43;1.60;;;;;;;24.78;48.20;101413.13;5018726;28;20025;-55
2022/06/29 09:17:01;;;;;;;6.97;1.50;;;;;;;24.88;49.06;101419.91;5019919;28;20030;-55
2022/06/29 09:19:29;;;;;;;3.88;1.35;;;;;;;25.06;48.81;101411.63;5018759;28;20443;-55
2022/06/29 09:21:56;;;;;;;4.03;1.75;;;;;;;25.12;49.90;101416.75;5020804;28;20036;-56
2022/06/29 09:24:25;;;;;;;3.50;2.00;;;;;;;25.14;49.93;101417.56;5021635;28;20086;-56
2022/06/29 09:27:10;;;;;;;7.43;2.13;;;;;;;25.25;50.43;101411.19;5023917;28;20036;-56
2022/06/29 09:29:44;;;;;;;4.45;2.40;;;;;;;25.35;48.33;101424.06;5019568;28;20037;-52
2022/06/29 09:32:14;;;;;;;4.85;2.00;;;;;;;25.52;50.54;101417.53;5016693;28;20106;-55
2022/06/29 09:34:48;;;;;;;4.18;1.80;;;;;;;25.63;48.78;101416.34;5017009;28;20034;-56
2022/06/29 09:37:16;;;;;;;5.07;1.85;;;;;;;25.71;47.79;101417.91;5017941;28;20048;-55
2022/06/29 09:39:42;;;;;;;4.38;2.00;;;;;;;25.75;47.80;101414.34;5018072;28;20482;-54
2022/06/29 09:42:12;;;;;;;4.57;1.60;;;;;;;25.89;47.14;101414.84;5019977;28;20482;-55
2022/06/29 09:44:38;;;;;;;6.28;1.80;;;;;;;25.86;45.34;101415.78;5020788;28;20036;-53
2022/06/29 09:47:07;;;;;;;5.32;1.67;;;;;;;25.80;46.33;101412.47;5021220;28;20033;-55
2022/06/29 09:49:35;;;;;;;3.90;1.63;;;;;;;25.80;46.03;101417.72;5018459;28;20616;-56
2022/06/29 09:52:03;;;;;;;4.20;1.38;;;;;;;25.87;46.61;101411.38;5024531;28;20021;-51
2022/06/29 09:54:36;;;;;;;4.10;1.30;;;;;;;26.00;46.88;101407.50;5020217;28;20052;-55
2022/06/29 09:57:02;;;;;;;5.78;1.40;;;;;;;26.13;46.00;101408.91;5026104;28;20029;-55
2022/06/29 10:05:04;;;;;;;3.83;1.40;;;;;;;26.38;41.44;101413.47;5017620;28;20143;-55
2022/06/29 10:07:30;;;;;;;4.40;1.13;;;;;;;26.54;42.37;101403.38;5021036;28;20033;-55
2022/06/29 10:09:57;;;;;;;4.10;1.17;;;;;;;26.58;42.01;101403.25;5024129;28;20053;-55
2022/06/29 10:15:29;;;;;;;8.90;1.10;;;;;;;26.82;43.02;101406.06;5026384;28;20228;-55
2022/06/29 10:18:14;;;;;;;4.28;1.02;;;;;;;26.89;41.80;101403.19;5020425;28;20033;-56
2022/06/29 10:20:46;;;;;;;3.50;1.02;;;;;;;27.01;40.84;101409.84;5009139;28;20478;-54
2022/06/29 10:23:42;;;;;;;4.55;1.48;;;;;;;27.09;41.14;101407.84;5016239;28;20033;-54
2022/06/29 10:29:07;;;;;;;1.83;1.05;;;;;;;27.24;40.97;101390.63;5005237;28;20037;-54
2022/06/29 10:31:54;;;;;;;2.67;1.08;;;;;;;27.30;39.83;101389.56;5013681;28;20036;-55
2022/06/29 10:34:28;;;;;;;3.10;0.93;;;;;;;27.38;39.69;101390.19;5018592;28;20053;-56
2022/06/29 10:37:07;;;;;;;2.63;1.10;;;;;;;27.50;39.59;101390.66;5025696;28;20025;-55
2022/06/29 10:39:48;;;;;;;2.85;0.90;;;;;;;27.53;40.17;101387.03;5023180;28;20076;-56
2022/06/29 10:45:17;;;;;;;2.55;1.10;;;;;;;27.63;39.79;101380.50;5024989;28;20056;-59
2022/06/29 10:47:52;;;;;;;2.95;1.00;;;;;;;27.55;37.77;101379.94;5021595;28;20060;-52
2022/06/29 10:50:21;;;;;;;3.50;1.00;;;;;;;27.30;35.80;101368.44;5022093;28;20564;-56
2022/06/29 10:52:48;;;;;;;2.45;0.90;;;;;;;27.23;38.59;101367.78;5019761;28;20032;-59
2022/06/29 10:55:16;;;;;;;1.70;0.80;;;;;;;27.12;38.09;101360.25;5022714;28;20060;-59
2022/06/29 10:57:43;;;;;;;1.95;0.93;;;;;;;27.09;39.83;101364.75;5024144;28;20052;-59
2022/06/29 11:00:14;;;;;;;3.25;1.30;;;;;;;27.05;40.21;101357.81;5016574;28;20041;-58
2022/06/29 11:02:41;;;;;;;3.70;1.20;;;;;;;26.99;38.91;101366.78;5019940;28;20116;-57
2022/06/29 11:05:07;;;;;;;2.10;1.05;;;;;;;26.97;39.45;101365.97;5016146;28;20060;-58
2022/06/29 11:13:00;;;;;;;6.15;1.23;;;;;;;26.75;39.62;101352.59;5019010;28;20533;-59
2022/06/29 11:15:39;;;;;;;1.80;1.10;;;;;;;26.91;39.08;101363.53;5028862;28;20064;-58
2022/06/29 11:18:06;;;;;;;2.05;1.17;;;;;;;26.87;37.29;101360.13;5011451;28;20482;-58
2022/06/29 11:20:31;;;;;;;1.40;1.17;;;;;;;26.90;38.58;101360.03;5014684;28;20447;-58
2022/06/29 11:22:58;;;;;;;3.00;1.05;;;;;;;26.90;38.12;101354.75;5014580;28;20108;-59
2022/06/29 11:25:24;;;;;;;2.15;1.10;;;;;;;26.84;38.56;101356.72;5010310;28;20037;-60
2022/06/29 11:27:49;;;;;;;2.85;1.10;;;;;;;26.92;41.04;101354.69;5013755;28;20087;-57
2022/06/29 11:30:22;;;;;;;3.30;1.20;;;;;;;26.91;39.78;101360.91;5014945;28;22256;-60
2022/06/29 11:32:49;;;;;;;3.25;1.33;;;;;;;26.90;38.84;101348.63;5018094;28;20700;-60
2022/06/29 11:35:21;;;;;;;5.82;1.27;;;;;;;26.94;38.27;101340.56;5011278;28;20029;-59
2022/06/29 11:37:49;;;;;;;3.90;1.10;;;;;;;27.07;39.10;101340.19;5012931;28;20033;-58
2022/06/29 11:40:41;;;;;;;2.50;1.10;;;;;;;27.16;39.47;101339.88;5014852;28;20087;-60
2022/06/29 11:43:15;;;;;;;3.78;1.30;;;;;;;27.11;39.70;101337.38;5010875;28;20029;-59
2022/06/29 11:45:44;;;;;;;6.45;1.30;;;;;;;27.02;38.19;101340.31;5013020;28;20116;-58
2022/06/29 11:48:12;;;;;;;1.88;1.00;;;;;;;26.94;39.56;101339.72;5015722;28;20026;-57
2022/06/29 11:50:45;;;;;;;4.88;1.20;;;;;;;26.94;40.18;101334.44;5012259;28;20033;-59